sensor_id;sensor_type;location;lat;lon;timestamp;P1;durP1;ratioP1;P2;durP2;ratioP2
71095;SDS011;58753;49.440;11.126;2023-02-28T00:00:46;3.63;;;1.57;;
71095;SDS011;58753;49.440;11.126;2023-02-28T00:03:11;4.93;;;1.70;;
71095;SDS011;58753;49.440;11.126;2023-02-28T00:05:37;5.13;;;2.40;;
71095;SDS011;58753;49.440;11.126;2023-02-28T00:08:05;5.93;;;1.60;;
71095;SDS011;58753;49.440;11.126;2023-02-28T00:10:31;4.68;;;1.77;;
71095;SDS011;58753;49.440;11.126;2023-02-28T00:13:04;3.80;;;1.27;;
71095;SDS011;58753;49.440;11.126;2023-02-28T00:15:30;5.07;;;2.45;;
71095;SDS011;58753;49.440;11.126;2023-02-28T00:17:56;4.50;;;2.00;;
71095;SDS011;58753;49.440;11.126;2023-02-28T00:20:22;3.95;;;1.50;;
71095;SDS011;58753;49.440;11.126;2023-02-28T00:22:48;5.03;;;1.50;;
71095;SDS011;58753;49.440;11.126;2023-02-28T00:25:16;4.55;;;1.70;;
71095;SDS011;58753;49.440;11.126;2023-02-28T00:27:43;4.38;;;1.65;;
71095;SDS011;58753;49.440;11.126;2023-02-28T00:30:11;5.00;;;2.37;;
71095;SDS011;58753;49.440;11.126;2023-02-28T00:32:38;3.20;;;1.27;;
71095;SDS011;58753;49.440;11.126;2023-02-28T00:35:04;4.85;;;1.50;;
71095;SDS011;58753;49.440;11.126;2023-02-28T00:37:30;5.77;;;2.00;;
71095;SDS011;58753;49.440;11.126;2023-02-28T00:39:56;4.38;;;1.48;;
71095;SDS011;58753;49.440;11.126;2023-02-28T00:42:22;4.47;;;1.90;;
71095;SDS011;58753;49.440;11.126;2023-02-28T00:44:47;4.85;;;2.05;;
71095;SDS011;58753;49.440;11.126;2023-02-28T00:47:12;5.33;;;1.60;;
71095;SDS011;58753;49.440;11.126;2023-02-28T00:49:38;4.47;;;1.53;;
71095;SDS011;58753;49.440;11.126;2023-02-28T00:52:04;3.83;;;1.67;;
71095;SDS011;58753;49.440;11.126;2023-02-28T00:54:30;6.57;;;1.90;;
71095;SDS011;58753;49.440;11.126;2023-02-28T00:56:55;4.82;;;2.20;;
71095;SDS011;58753;49.440;11.126;2023-02-28T00:59:21;4.67;;;1.53;;
71095;SDS011;58753;49.440;11.126;2023-02-28T01:01:46;6.10;;;2.37;;
71095;SDS011;58753;49.440;11.126;2023-02-28T01:04:13;6.63;;;1.85;;
71095;SDS011;58753;49.440;11.126;2023-02-28T01:06:39;3.63;;;1.92;;
71095;SDS011;58753;49.440;11.126;2023-02-28T01:09:05;4.03;;;1.70;;
71095;SDS011;58753;49.440;11.126;2023-02-28T01:11:31;4.82;;;2.00;;
71095;SDS011;58753;49.440;11.126;2023-02-28T01:13:57;5.20;;;1.50;;
71095;SDS011;58753;49.440;11.126;2023-02-28T01:16:22;6.00;;;1.90;;
71095;SDS011;58753;49.440;11.126;2023-02-28T01:18:48;3.35;;;1.52;;
71095;SDS011;58753;49.440;11.126;2023-02-28T01:21:15;6.97;;;1.63;;
71095;SDS011;58753;49.440;11.126;2023-02-28T01:23:42;6.05;;;2.10;;
71095;SDS011;58753;49.440;11.126;2023-02-28T01:26:10;5.40;;;2.00;;
71095;SDS011;58753;49.440;11.126;2023-02-28T01:28:44;6.82;;;2.05;;
71095;SDS011;58753;49.440;11.126;2023-02-28T01:31:10;4.07;;;1.92;;
71095;SDS011;58753;49.440;11.126;2023-02-28T01:33:36;5.28;;;1.58;;
71095;SDS011;58753;49.440;11.126;2023-02-28T01:38:33;5.38;;;1.80;;
71095;SDS011;58753;49.440;11.126;2023-02-28T01:40:59;4.27;;;1.53;;
71095;SDS011;58753;49.440;11.126;2023-02-28T01:43:26;6.22;;;2.10;;
71095;SDS011;58753;49.440;11.126;2023-02-28T01:45:53;4.18;;;1.60;;
71095;SDS011;58753;49.440;11.126;2023-02-28T01:48:25;3.40;;;1.70;;
71095;SDS011;58753;49.440;11.126;2023-02-28T01:50:53;4.70;;;2.33;;
71095;SDS011;58753;49.440;11.126;2023-02-28T01:53:22;5.10;;;1.65;;
71095;SDS011;58753;49.440;11.126;2023-02-28T01:55:55;4.00;;;1.55;;
71095;SDS011;58753;49.440;11.126;2023-02-28T01:58:21;4.45;;;2.03;;
71095;SDS011;58753;49.440;11.126;2023-02-28T02:00:46;5.17;;;1.90;;
71095;SDS011;58753;49.440;11.126;2023-02-28T02:03:13;4.25;;;1.80;;
71095;SDS011;58753;49.440;11.126;2023-02-28T02:05:40;5.00;;;1.92;;
71095;SDS011;58753;49.440;11.126;2023-02-28T02:08:10;5.40;;;1.80;;
71095;SDS011;58753;49.440;11.126;2023-02-28T02:10:57;3.92;;;1.58;;
71095;SDS011;58753;49.440;11.126;2023-02-28T02:13:40;7.40;;;1.80;;
71095;SDS011;58753;49.440;11.126;2023-02-28T02:18:58;5.10;;;1.77;;
71095;SDS011;58753;49.440;11.126;2023-02-28T02:35:12;6.85;;;2.15;;
71095;SDS011;58753;49.440;11.126;2023-02-28T02:43:22;4.53;;;2.03;;
71095;SDS011;58753;49.440;11.126;2023-02-28T02:45:59;5.53;;;1.90;;
71095;SDS011;58753;49.440;11.126;2023-02-28T02:48:30;5.97;;;2.28;;
71095;SDS011;58753;49.440;11.126;2023-02-28T02:50:59;5.40;;;2.07;;
71095;SDS011;58753;49.440;11.126;2023-02-28T02:53:30;5.63;;;1.70;;
71095;SDS011;58753;49.440;11.126;2023-02-28T02:56:00;4.88;;;2.53;;
71095;SDS011;58753;49.440;11.126;2023-02-28T02:58:29;5.93;;;2.33;;
71095;SDS011;58753;49.440;11.126;2023-02-28T03:00:59;7.85;;;2.17;;
71095;SDS011;58753;49.440;11.126;2023-02-28T03:03:27;4.83;;;2.30;;
71095;SDS011;58753;49.440;11.126;2023-02-28T03:05:59;5.15;;;1.48;;
71095;SDS011;58753;49.440;11.126;2023-02-28T03:08:26;7.43;;;2.13;;
71095;SDS011;58753;49.440;11.126;2023-02-28T03:10:58;5.10;;;1.83;;
71095;SDS011;58753;49.440;11.126;2023-02-28T03:25:06;9.35;;;2.50;;
71095;SDS011;58753;49.440;11.126;2023-02-28T03:30:17;6.53;;;2.37;;
71095;SDS011;58753;49.440;11.126;2023-02-28T03:33:03;4.13;;;1.88;;
71095;SDS011;58753;49.440;11.126;2023-02-28T03:35:37;6.75;;;3.03;;
71095;SDS011;58753;49.440;11.126;2023-02-28T03:38:22;6.00;;;2.40;;
71095;SDS011;58753;49.440;11.126;2023-02-28T03:40:55;6.53;;;2.42;;
71095;SDS011;58753;49.440;11.126;2023-02-28T03:43:29;7.63;;;2.63;;
71095;SDS011;58753;49.440;11.126;2023-02-28T03:45:58;8.55;;;2.88;;
71095;SDS011;58753;49.440;11.126;2023-02-28T03:48:45;5.38;;;2.15;;
71095;SDS011;58753;49.440;11.126;2023-02-28T03:51:17;7.57;;;2.83;;
71095;SDS011;58753;49.440;11.126;2023-02-28T03:53:50;7.90;;;3.50;;
71095;SDS011;58753;49.440;11.126;2023-02-28T03:56:27;5.63;;;2.10;;
71095;SDS011;58753;49.440;11.126;2023-02-28T03:59:04;6.70;;;2.47;;
71095;SDS011;58753;49.440;11.126;2023-02-28T04:01:45;5.35;;;2.50;;
71095;SDS011;58753;49.440;11.126;2023-02-28T04:04:13;5.88;;;2.65;;
71095;SDS011;58753;49.440;11.126;2023-02-28T04:06:40;8.35;;;3.30;;
71095;SDS011;58753;49.440;11.126;2023-02-28T04:09:07;7.07;;;2.70;;
71095;SDS011;58753;49.440;11.126;2023-02-28T04:11:35;6.40;;;2.88;;
71095;SDS011;58753;49.440;11.126;2023-02-28T04:14:02;6.28;;;3.08;;
71095;SDS011;58753;49.440;11.126;2023-02-28T04:16:29;6.90;;;3.08;;
71095;SDS011;58753;49.440;11.126;2023-02-28T04:18:56;7.10;;;2.83;;
71095;SDS011;58753;49.440;11.126;2023-02-28T04:21:27;5.37;;;2.53;;
71095;SDS011;58753;49.440;11.126;2023-02-28T04:23:57;8.95;;;3.05;;
71095;SDS011;58753;49.440;11.126;2023-02-28T04:26:25;6.93;;;3.40;;
71095;SDS011;58753;49.440;11.126;2023-02-28T04:29:01;6.63;;;2.90;;
71095;SDS011;58753;49.440;11.126;2023-02-28T04:31:32;6.55;;;3.42;;
71095;SDS011;58753;49.440;11.126;2023-02-28T04:33:58;7.70;;;3.17;;
71095;SDS011;58753;49.440;11.126;2023-02-28T04:36:24;6.60;;;3.00;;
71095;SDS011;58753;49.440;11.126;2023-02-28T04:38:50;7.00;;;3.15;;
71095;SDS011;58753;49.440;11.126;2023-02-28T04:41:16;8.77;;;3.25;;
71095;SDS011;58753;49.440;11.126;2023-02-28T04:43:42;8.13;;;3.50;;
71095;SDS011;58753;49.440;11.126;2023-02-28T04:46:07;10.57;;;3.42;;
71095;SDS011;58753;49.440;11.126;2023-02-28T04:48:34;8.57;;;3.80;;
71095;SDS011;58753;49.440;11.126;2023-02-28T04:51:06;7.40;;;3.00;;
71095;SDS011;58753;49.440;11.126;2023-02-28T04:53:37;9.40;;;3.55;;
71095;SDS011;58753;49.440;11.126;2023-02-28T04:56:03;5.97;;;3.13;;
71095;SDS011;58753;49.440;11.126;2023-02-28T04:58:29;9.53;;;3.57;;
71095;SDS011;58753;49.440;11.126;2023-02-28T05:01:00;5.38;;;3.05;;
71095;SDS011;58753;49.440;11.126;2023-02-28T05:03:27;8.17;;;3.53;;
71095;SDS011;58753;49.440;11.126;2023-02-28T05:05:53;7.93;;;3.05;;
71095;SDS011;58753;49.440;11.126;2023-02-28T05:08:18;6.90;;;3.60;;
71095;SDS011;58753;49.440;11.126;2023-02-28T05:10:43;7.13;;;2.67;;
71095;SDS011;58753;49.440;11.126;2023-02-28T05:13:11;7.73;;;3.53;;
71095;SDS011;58753;49.440;11.126;2023-02-28T05:15:37;6.03;;;3.25;;
71095;SDS011;58753;49.440;11.126;2023-02-28T05:18:03;10.30;;;3.77;;
71095;SDS011;58753;49.440;11.126;2023-02-28T05:20:28;8.23;;;3.00;;
71095;SDS011;58753;49.440;11.126;2023-02-28T05:22:53;5.95;;;2.78;;
71095;SDS011;58753;49.440;11.126;2023-02-28T05:25:19;7.10;;;3.50;;
71095;SDS011;58753;49.440;11.126;2023-02-28T05:27:47;7.90;;;3.53;;
71095;SDS011;58753;49.440;11.126;2023-02-28T05:30:12;9.57;;;3.77;;
71095;SDS011;58753;49.440;11.126;2023-02-28T05:32:38;8.55;;;2.80;;
71095;SDS011;58753;49.440;11.126;2023-02-28T05:35:08;6.60;;;2.77;;
71095;SDS011;58753;49.440;11.126;2023-02-28T05:37:35;7.45;;;3.10;;
71095;SDS011;58753;49.440;11.126;2023-02-28T05:40:01;9.87;;;3.60;;
71095;SDS011;58753;49.440;11.126;2023-02-28T05:42:26;8.35;;;4.03;;
71095;SDS011;58753;49.440;11.126;2023-02-28T05:44:52;6.83;;;3.13;;
71095;SDS011;58753;49.440;11.126;2023-02-28T05:47:17;6.45;;;3.40;;
71095;SDS011;58753;49.440;11.126;2023-02-28T05:49:42;6.20;;;2.83;;
71095;SDS011;58753;49.440;11.126;2023-02-28T05:52:11;9.73;;;3.43;;
71095;SDS011;58753;49.440;11.126;2023-02-28T05:54:36;9.07;;;3.80;;
71095;SDS011;58753;49.440;11.126;2023-02-28T05:57:02;17.10;;;6.87;;
71095;SDS011;58753;49.440;11.126;2023-02-28T05:59:27;11.00;;;5.13;;
71095;SDS011;58753;49.440;11.126;2023-02-28T06:01:53;8.57;;;3.63;;
71095;SDS011;58753;49.440;11.126;2023-02-28T06:04:19;9.53;;;4.47;;
71095;SDS011;58753;49.440;11.126;2023-02-28T06:06:49;10.02;;;4.15;;
71095;SDS011;58753;49.440;11.126;2023-02-28T06:09:15;7.65;;;4.00;;
71095;SDS011;58753;49.440;11.126;2023-02-28T06:11:41;9.10;;;3.70;;
71095;SDS011;58753;49.440;11.126;2023-02-28T06:14:07;6.43;;;3.50;;
71095;SDS011;58753;49.440;11.126;2023-02-28T06:16:33;7.38;;;3.58;;
71095;SDS011;58753;49.440;11.126;2023-02-28T06:19:00;8.68;;;4.53;;
71095;SDS011;58753;49.440;11.126;2023-02-28T06:21:28;11.30;;;4.73;;
71095;SDS011;58753;49.440;11.126;2023-02-28T06:23:53;9.40;;;4.00;;
71095;SDS011;58753;49.440;11.126;2023-02-28T06:26:20;9.10;;;4.45;;
71095;SDS011;58753;49.440;11.126;2023-02-28T06:28:45;12.30;;;4.47;;
71095;SDS011;58753;49.440;11.126;2023-02-28T06:31:12;9.73;;;3.33;;
71095;SDS011;58753;49.440;11.126;2023-02-28T06:33:39;8.23;;;3.97;;
71095;SDS011;58753;49.440;11.126;2023-02-28T06:36:06;10.82;;;3.55;;
71095;SDS011;58753;49.440;11.126;2023-02-28T06:38:32;8.63;;;4.17;;
71095;SDS011;58753;49.440;11.126;2023-02-28T06:40:59;8.10;;;4.38;;
71095;SDS011;58753;49.440;11.126;2023-02-28T06:43:26;11.45;;;4.75;;
71095;SDS011;58753;49.440;11.126;2023-02-28T06:45:55;12.32;;;4.35;;
71095;SDS011;58753;49.440;11.126;2023-02-28T06:48:21;8.90;;;3.05;;
71095;SDS011;58753;49.440;11.126;2023-02-28T06:50:46;10.97;;;3.80;;
71095;SDS011;58753;49.440;11.126;2023-02-28T06:53:12;13.50;;;4.03;;
71095;SDS011;58753;49.440;11.126;2023-02-28T06:55:38;8.95;;;4.10;;
71095;SDS011;58753;49.440;11.126;2023-02-28T06:58:03;9.00;;;4.17;;
71095;SDS011;58753;49.440;11.126;2023-02-28T07:00:43;10.93;;;3.65;;
71095;SDS011;58753;49.440;11.126;2023-02-28T07:03:09;11.90;;;3.55;;
71095;SDS011;58753;49.440;11.126;2023-02-28T07:05:35;12.98;;;4.32;;
71095;SDS011;58753;49.440;11.126;2023-02-28T07:08:02;10.27;;;3.80;;
71095;SDS011;58753;49.440;11.126;2023-02-28T07:10:28;8.63;;;3.43;;
71095;SDS011;58753;49.440;11.126;2023-02-28T07:12:54;10.05;;;4.30;;
71095;SDS011;58753;49.440;11.126;2023-02-28T07:15:19;10.80;;;4.43;;
71095;SDS011;58753;49.440;11.126;2023-02-28T07:17:44;9.20;;;4.33;;
71095;SDS011;58753;49.440;11.126;2023-02-28T07:20:10;12.37;;;3.67;;
71095;SDS011;58753;49.440;11.126;2023-02-28T07:22:36;8.37;;;3.70;;
71095;SDS011;58753;49.440;11.126;2023-02-28T07:25:01;13.50;;;4.77;;
71095;SDS011;58753;49.440;11.126;2023-02-28T07:27:26;10.70;;;3.70;;
71095;SDS011;58753;49.440;11.126;2023-02-28T07:29:52;10.40;;;4.37;;
71095;SDS011;58753;49.440;11.126;2023-02-28T07:32:18;8.05;;;4.32;;
71095;SDS011;58753;49.440;11.126;2023-02-28T07:34:44;10.10;;;4.00;;
71095;SDS011;58753;49.440;11.126;2023-02-28T07:37:10;8.50;;;4.10;;
71095;SDS011;58753;49.440;11.126;2023-02-28T07:39:35;9.70;;;4.33;;
71095;SDS011;58753;49.440;11.126;2023-02-28T07:42:04;7.38;;;3.45;;
71095;SDS011;58753;49.440;11.126;2023-02-28T07:44:29;8.67;;;3.77;;
71095;SDS011;58753;49.440;11.126;2023-02-28T07:46:55;11.50;;;4.57;;
71095;SDS011;58753;49.440;11.126;2023-02-28T07:49:20;9.73;;;4.13;;
71095;SDS011;58753;49.440;11.126;2023-02-28T07:51:46;9.00;;;3.93;;
71095;SDS011;58753;49.440;11.126;2023-02-28T07:54:11;13.30;;;4.20;;
71095;SDS011;58753;49.440;11.126;2023-02-28T07:56:36;9.13;;;3.87;;
71095;SDS011;58753;49.440;11.126;2023-02-28T07:59:02;8.70;;;3.97;;
71095;SDS011;58753;49.440;11.126;2023-02-28T08:01:27;7.95;;;4.22;;
71095;SDS011;58753;49.440;11.126;2023-02-28T08:03:53;10.13;;;4.53;;
71095;SDS011;58753;49.440;11.126;2023-02-28T08:06:20;8.73;;;4.18;;
71095;SDS011;58753;49.440;11.126;2023-02-28T08:08:47;11.52;;;4.10;;
71095;SDS011;58753;49.440;11.126;2023-02-28T08:11:14;8.05;;;3.65;;
71095;SDS011;58753;49.440;11.126;2023-02-28T08:13:40;10.53;;;4.37;;
71095;SDS011;58753;49.440;11.126;2023-02-28T08:16:07;8.98;;;4.25;;
71095;SDS011;58753;49.440;11.126;2023-02-28T08:18:32;11.90;;;4.85;;
71095;SDS011;58753;49.440;11.126;2023-02-28T08:20:59;8.53;;;3.67;;
71095;SDS011;58753;49.440;11.126;2023-02-28T08:23:24;16.73;;;4.63;;
71095;SDS011;58753;49.440;11.126;2023-02-28T08:25:53;9.03;;;4.17;;
71095;SDS011;58753;49.440;11.126;2023-02-28T08:28:19;9.70;;;4.85;;
71095;SDS011;58753;49.440;11.126;2023-02-28T08:30:45;10.03;;;4.67;;
71095;SDS011;58753;49.440;11.126;2023-02-28T08:33:10;9.00;;;4.50;;
71095;SDS011;58753;49.440;11.126;2023-02-28T08:35:36;9.00;;;4.50;;
71095;SDS011;58753;49.440;11.126;2023-02-28T08:38:02;12.10;;;5.03;;
71095;SDS011;58753;49.440;11.126;2023-02-28T08:40:27;8.93;;;4.30;;
71095;SDS011;58753;49.440;11.126;2023-02-28T08:42:53;9.97;;;4.77;;
71095;SDS011;58753;49.440;11.126;2023-02-28T08:45:18;9.82;;;4.28;;
71095;SDS011;58753;49.440;11.126;2023-02-28T08:47:44;10.50;;;3.27;;
71095;SDS011;58753;49.440;11.126;2023-02-28T08:50:09;11.87;;;5.03;;
71095;SDS011;58753;49.440;11.126;2023-02-28T08:52:35;7.78;;;3.80;;
71095;SDS011;58753;49.440;11.126;2023-02-28T08:55:00;9.80;;;4.40;;
71095;SDS011;58753;49.440;11.126;2023-02-28T08:57:25;11.30;;;4.37;;
71095;SDS011;58753;49.440;11.126;2023-02-28T08:59:52;11.30;;;5.05;;
71095;SDS011;58753;49.440;11.126;2023-02-28T09:02:17;7.57;;;3.73;;
71095;SDS011;58753;49.440;11.126;2023-02-28T09:04:43;9.43;;;4.07;;
71095;SDS011;58753;49.440;11.126;2023-02-28T09:07:10;14.23;;;4.93;;
71095;SDS011;58753;49.440;11.126;2023-02-28T09:09:36;9.40;;;4.30;;
71095;SDS011;58753;49.440;11.126;2023-02-28T09:12:02;9.05;;;3.90;;
71095;SDS011;58753;49.440;11.126;2023-02-28T09:14:27;10.63;;;5.20;;
71095;SDS011;58753;49.440;11.126;2023-02-28T09:16:53;7.43;;;3.72;;
71095;SDS011;58753;49.440;11.126;2023-02-28T09:19:18;9.53;;;4.70;;
71095;SDS011;58753;49.440;11.126;2023-02-28T09:21:44;11.67;;;5.30;;
71095;SDS011;58753;49.440;11.126;2023-02-28T09:24:09;11.23;;;5.17;;
71095;SDS011;58753;49.440;11.126;2023-02-28T09:26:36;8.13;;;4.40;;
71095;SDS011;58753;49.440;11.126;2023-02-28T09:29:02;13.30;;;4.85;;
71095;SDS011;58753;49.440;11.126;2023-02-28T09:31:28;8.48;;;4.18;;
71095;SDS011;58753;49.440;11.126;2023-02-28T09:33:55;10.97;;;5.03;;
71095;SDS011;58753;49.440;11.126;2023-02-28T09:36:22;8.75;;;4.32;;
71095;SDS011;58753;49.440;11.126;2023-02-28T09:38:49;12.40;;;4.90;;
71095;SDS011;58753;49.440;11.126;2023-02-28T09:41:23;7.57;;;3.83;;
71095;SDS011;58753;49.440;11.126;2023-02-28T09:43:54;7.80;;;4.93;;
71095;SDS011;58753;49.440;11.126;2023-02-28T09:49:17;8.77;;;3.80;;
71095;SDS011;58753;49.440;11.126;2023-02-28T09:51:49;8.57;;;3.50;;
71095;SDS011;58753;49.440;11.126;2023-02-28T09:54:30;10.10;;;3.78;;
71095;SDS011;58753;49.440;11.126;2023-02-28T09:56:58;9.13;;;4.53;;
71095;SDS011;58753;49.440;11.126;2023-02-28T10:04:59;9.60;;;4.67;;
71095;SDS011;58753;49.440;11.126;2023-02-28T10:13:05;8.60;;;3.35;;
71095;SDS011;58753;49.440;11.126;2023-02-28T10:15:37;7.05;;;3.50;;
71095;SDS011;58753;49.440;11.126;2023-02-28T10:18:04;9.80;;;3.67;;
71095;SDS011;58753;49.440;11.126;2023-02-28T10:20:35;9.95;;;5.00;;
71095;SDS011;58753;49.440;11.126;2023-02-28T10:25:42;9.87;;;4.73;;
71095;SDS011;58753;49.440;11.126;2023-02-28T10:28:16;7.40;;;3.78;;
71095;SDS011;58753;49.440;11.126;2023-02-28T10:30:46;10.95;;;4.93;;
71095;SDS011;58753;49.440;11.126;2023-02-28T10:33:17;10.25;;;4.68;;
71095;SDS011;58753;49.440;11.126;2023-02-28T10:35:47;12.07;;;4.43;;
71095;SDS011;58753;49.440;11.126;2023-02-28T10:38:17;7.20;;;4.00;;
71095;SDS011;58753;49.440;11.126;2023-02-28T10:40:50;8.98;;;4.45;;
71095;SDS011;58753;49.440;11.126;2023-02-28T10:45:58;8.55;;;4.47;;
71095;SDS011;58753;49.440;11.126;2023-02-28T10:48:59;12.47;;;4.90;;
71095;SDS011;58753;49.440;11.126;2023-02-28T10:51:33;11.43;;;4.18;;
71095;SDS011;58753;49.440;11.126;2023-02-28T10:54:01;8.32;;;4.35;;
71095;SDS011;58753;49.440;11.126;2023-02-28T10:56:28;8.15;;;3.88;;
71095;SDS011;58753;49.440;11.126;2023-02-28T10:58:55;10.00;;;4.77;;
71095;SDS011;58753;49.440;11.126;2023-02-28T11:03:55;9.32;;;4.47;;
71095;SDS011;58753;49.440;11.126;2023-02-28T11:06:23;8.30;;;3.88;;
71095;SDS011;58753;49.440;11.126;2023-02-28T11:09:02;8.65;;;4.30;;
71095;SDS011;58753;49.440;11.126;2023-02-28T11:11:45;9.00;;;4.80;;
71095;SDS011;58753;49.440;11.126;2023-02-28T11:14:20;8.63;;;4.15;;
71095;SDS011;58753;49.440;11.126;2023-02-28T11:16:49;12.20;;;4.93;;
71095;SDS011;58753;49.440;11.126;2023-02-28T11:19:17;7.28;;;3.50;;
71095;SDS011;58753;49.440;11.126;2023-02-28T11:21:52;9.93;;;3.70;;
71095;SDS011;58753;49.440;11.126;2023-02-28T11:24:27;7.57;;;3.90;;
71095;SDS011;58753;49.440;11.126;2023-02-28T11:26:55;9.13;;;4.15;;
71095;SDS011;58753;49.440;11.126;2023-02-28T11:29:23;8.63;;;4.30;;
71095;SDS011;58753;49.440;11.126;2023-02-28T11:34:35;7.85;;;4.07;;
71095;SDS011;58753;49.440;11.126;2023-02-28T11:37:02;10.47;;;4.97;;
71095;SDS011;58753;49.440;11.126;2023-02-28T11:39:30;9.23;;;4.25;;
71095;SDS011;58753;49.440;11.126;2023-02-28T11:44:57;7.18;;;4.45;;
71095;SDS011;58753;49.440;11.126;2023-02-28T11:52:52;9.50;;;4.88;;
71095;SDS011;58753;49.440;11.126;2023-02-28T11:55:38;7.78;;;4.25;;
71095;SDS011;58753;49.440;11.126;2023-02-28T11:58:14;7.35;;;3.67;;
71095;SDS011;58753;49.440;11.126;2023-02-28T12:17:00;8.55;;;4.85;;
71095;SDS011;58753;49.440;11.126;2023-02-28T12:25:24;7.60;;;4.78;;
71095;SDS011;58753;49.440;11.126;2023-02-28T12:28:02;8.75;;;5.13;;
71095;SDS011;58753;49.440;11.126;2023-02-28T12:30:28;9.40;;;4.90;;
71095;SDS011;58753;49.440;11.126;2023-02-28T12:33:05;7.68;;;4.75;;
71095;SDS011;58753;49.440;11.126;2023-02-28T12:38:10;8.90;;;4.78;;
71095;SDS011;58753;49.440;11.126;2023-02-28T12:43:17;8.03;;;4.90;;
71095;SDS011;58753;49.440;11.126;2023-02-28T12:48:41;8.40;;;4.82;;
71095;SDS011;58753;49.440;11.126;2023-02-28T12:51:09;8.52;;;4.47;;
71095;SDS011;58753;49.440;11.126;2023-02-28T12:53:47;7.78;;;4.30;;
71095;SDS011;58753;49.440;11.126;2023-02-28T12:56:21;8.40;;;4.23;;
71095;SDS011;58753;49.440;11.126;2023-02-28T13:09:59;8.38;;;5.30;;
71095;SDS011;58753;49.440;11.126;2023-02-28T13:12:28;7.47;;;4.53;;
71095;SDS011;58753;49.440;11.126;2023-02-28T13:15:02;9.07;;;4.80;;
71095;SDS011;58753;49.440;11.126;2023-02-28T13:17:37;7.93;;;4.60;;
71095;SDS011;58753;49.440;11.126;2023-02-28T13:20:14;8.82;;;4.40;;
71095;SDS011;58753;49.440;11.126;2023-02-28T13:22:43;10.32;;;5.88;;
71095;SDS011;58753;49.440;11.126;2023-02-28T13:27:48;8.80;;;4.75;;
71095;SDS011;58753;49.440;11.126;2023-02-28T13:36:06;9.65;;;5.60;;
71095;SDS011;58753;49.440;11.126;2023-02-28T13:38:33;8.53;;;4.80;;
71095;SDS011;58753;49.440;11.126;2023-02-28T13:46:29;8.45;;;4.82;;
71095;SDS011;58753;49.440;11.126;2023-02-28T13:48:55;9.00;;;4.68;;
71095;SDS011;58753;49.440;11.126;2023-02-28T13:51:38;12.10;;;4.83;;
71095;SDS011;58753;49.440;11.126;2023-02-28T13:57:20;9.43;;;4.17;;
71095;SDS011;58753;49.440;11.126;2023-02-28T14:02:52;11.30;;;5.60;;
71095;SDS011;58753;49.440;11.126;2023-02-28T14:05:30;9.95;;;4.45;;
71095;SDS011;58753;49.440;11.126;2023-02-28T14:07:59;9.80;;;4.18;;
71095;SDS011;58753;49.440;11.126;2023-02-28T14:10:31;11.00;;;5.53;;
71095;SDS011;58753;49.440;11.126;2023-02-28T14:13:01;11.20;;;5.57;;
71095;SDS011;58753;49.440;11.126;2023-02-28T14:15:59;9.18;;;4.63;;
71095;SDS011;58753;49.440;11.126;2023-02-28T14:18:36;11.65;;;5.22;;
71095;SDS011;58753;49.440;11.126;2023-02-28T14:21:09;9.30;;;4.32;;
71095;SDS011;58753;49.440;11.126;2023-02-28T14:26:37;11.02;;;4.90;;
71095;SDS011;58753;49.440;11.126;2023-02-28T14:37:44;8.70;;;5.23;;
71095;SDS011;58753;49.440;11.126;2023-02-28T14:40:21;15.02;;;5.05;;
71095;SDS011;58753;49.440;11.126;2023-02-28T14:42:59;9.10;;;5.13;;
71095;SDS011;58753;49.440;11.126;2023-02-28T14:45:27;9.17;;;5.37;;
71095;SDS011;58753;49.440;11.126;2023-02-28T14:47:55;9.55;;;4.82;;
71095;SDS011;58753;49.440;11.126;2023-02-28T14:50:48;11.57;;;4.68;;
71095;SDS011;58753;49.440;11.126;2023-02-28T14:53:15;11.63;;;5.30;;
71095;SDS011;58753;49.440;11.126;2023-02-28T14:55:45;12.02;;;5.80;;
71095;SDS011;58753;49.440;11.126;2023-02-28T15:01:18;10.93;;;5.40;;
71095;SDS011;58753;49.440;11.126;2023-02-28T15:03:46;11.48;;;5.60;;
71095;SDS011;58753;49.440;11.126;2023-02-28T15:06:13;9.48;;;5.45;;
71095;SDS011;58753;49.440;11.126;2023-02-28T15:08:40;11.35;;;5.55;;
71095;SDS011;58753;49.440;11.126;2023-02-28T15:11:07;9.67;;;4.67;;
71095;SDS011;58753;49.440;11.126;2023-02-28T15:16:20;9.43;;;5.17;;
71095;SDS011;58753;49.440;11.126;2023-02-28T15:18:52;9.80;;;4.50;;
71095;SDS011;58753;49.440;11.126;2023-02-28T15:21:26;12.02;;;4.72;;
71095;SDS011;58753;49.440;11.126;2023-02-28T15:26:33;10.88;;;4.05;;
71095;SDS011;58753;49.440;11.126;2023-02-28T15:29:13;9.43;;;4.83;;
71095;SDS011;58753;49.440;11.126;2023-02-28T15:31:46;10.50;;;4.25;;
71095;SDS011;58753;49.440;11.126;2023-02-28T15:34:21;11.68;;;5.32;;
71095;SDS011;58753;49.440;11.126;2023-02-28T15:36:52;12.73;;;5.00;;
71095;SDS011;58753;49.440;11.126;2023-02-28T15:39:19;14.80;;;6.07;;
71095;SDS011;58753;49.440;11.126;2023-02-28T15:41:49;10.35;;;4.28;;
71095;SDS011;58753;49.440;11.126;2023-02-28T15:44:28;11.80;;;5.18;;
71095;SDS011;58753;49.440;11.126;2023-02-28T15:49:31;11.18;;;5.28;;
71095;SDS011;58753;49.440;11.126;2023-02-28T15:52:27;11.18;;;5.00;;
71095;SDS011;58753;49.440;11.126;2023-02-28T15:55:19;9.80;;;5.22;;
71095;SDS011;58753;49.440;11.126;2023-02-28T15:57:47;10.20;;;4.95;;
71095;SDS011;58753;49.440;11.126;2023-02-28T16:00:18;12.43;;;5.33;;
71095;SDS011;58753;49.440;11.126;2023-02-28T16:02:45;11.00;;;4.93;;
71095;SDS011;58753;49.440;11.126;2023-02-28T16:07:40;13.87;;;6.00;;
71095;SDS011;58753;49.440;11.126;2023-02-28T16:10:09;13.38;;;5.32;;
71095;SDS011;58753;49.440;11.126;2023-02-28T16:12:37;10.07;;;5.27;;
71095;SDS011;58753;49.440;11.126;2023-02-28T16:15:08;12.30;;;5.57;;
71095;SDS011;58753;49.440;11.126;2023-02-28T16:17:42;10.95;;;4.65;;
71095;SDS011;58753;49.440;11.126;2023-02-28T16:20:21;10.83;;;5.20;;
71095;SDS011;58753;49.440;11.126;2023-02-28T16:22:51;9.80;;;5.00;;
71095;SDS011;58753;49.440;11.126;2023-02-28T16:25:18;10.90;;;5.55;;
71095;SDS011;58753;49.440;11.126;2023-02-28T16:27:48;8.75;;;4.85;;
71095;SDS011;58753;49.440;11.126;2023-02-28T16:30:17;11.17;;;5.00;;
71095;SDS011;58753;49.440;11.126;2023-02-28T16:32:46;12.55;;;6.45;;
71095;SDS011;58753;49.440;11.126;2023-02-28T16:35:12;9.30;;;4.88;;
71095;SDS011;58753;49.440;11.126;2023-02-28T16:37:39;7.07;;;4.55;;
71095;SDS011;58753;49.440;11.126;2023-02-28T16:40:04;10.10;;;5.13;;
71095;SDS011;58753;49.440;11.126;2023-02-28T16:42:30;10.35;;;5.22;;
71095;SDS011;58753;49.440;11.126;2023-02-28T16:44:56;9.20;;;4.78;;
71095;SDS011;58753;49.440;11.126;2023-02-28T16:47:23;12.13;;;5.60;;
71095;SDS011;58753;49.440;11.126;2023-02-28T16:49:48;9.47;;;4.47;;
71095;SDS011;58753;49.440;11.126;2023-02-28T16:52:14;9.23;;;5.03;;
71095;SDS011;58753;49.440;11.126;2023-02-28T16:54:40;10.27;;;5.10;;
71095;SDS011;58753;49.440;11.126;2023-02-28T16:57:06;10.32;;;5.18;;
71095;SDS011;58753;49.440;11.126;2023-02-28T16:59:46;12.32;;;5.10;;
71095;SDS011;58753;49.440;11.126;2023-02-28T17:02:12;11.40;;;4.77;;
71095;SDS011;58753;49.440;11.126;2023-02-28T17:04:40;10.93;;;4.32;;
71095;SDS011;58753;49.440;11.126;2023-02-28T17:07:08;10.30;;;4.80;;
71095;SDS011;58753;49.440;11.126;2023-02-28T17:09:37;10.80;;;4.60;;
71095;SDS011;58753;49.440;11.126;2023-02-28T17:12:02;13.82;;;4.85;;
71095;SDS011;58753;49.440;11.126;2023-02-28T17:14:28;12.47;;;5.17;;
71095;SDS011;58753;49.440;11.126;2023-02-28T17:16:53;9.50;;;4.27;;
71095;SDS011;58753;49.440;11.126;2023-02-28T17:19:19;12.57;;;4.63;;